sim
Sign-in with your pilot id or email,
or register
Callsign
Passwort

Schedule Details

Flight Number: OEO7671
Departure: Atlanta Hartsfield-Jackson International Airport (KATL) at 22:50
Arrival: Munich Airport (EDDM) at 08:05

Weather Information
Getting current METAR information for KATL 210652Z 08016KT 10SM FEW250 14/08 A3033 RMK AO2 PK WND 07026/0553 SLP268 T01440083 $
Getting current METAR information for EDDM 210720Z VRB01KT CAVOK 13/12 Q1017 BECMG 09005KT

Schedule Frequency

Route Map